createdAt,value
2018-01-22T00:00:21.589Z,99.33
2018-01-22T00:01:21.605Z,99.24
2018-01-22T00:02:21.618Z,99.62
2018-01-22T00:03:21.633Z,98.96
2018-01-22T00:04:21.648Z,99.33
2018-01-22T00:05:21.663Z,98.86
2018-01-22T00:06:21.679Z,98.96
2018-01-22T00:07:21.693Z,98.86
2018-01-22T00:08:21.708Z,99.24
2018-01-22T00:09:21.723Z,99.15
2018-01-22T00:10:21.738Z,99.33
2018-01-22T00:11:22.054Z,99.15
2018-01-22T00:12:21.799Z,99.71
2018-01-22T00:13:21.783Z,99.24
2018-01-22T00:14:22.049Z,99.43
2018-01-22T00:15:21.813Z,99.15
2018-01-22T00:16:21.831Z,99.05
2018-01-22T00:17:22.044Z,98.86
2018-01-22T00:18:21.860Z,99.05
2018-01-22T00:19:22.022Z,99.15
2018-01-22T00:20:21.888Z,99.05
2018-01-22T00:21:21.904Z,99.15
2018-01-22T00:22:21.918Z,99.05
2018-01-22T00:23:22.033Z,99.15
2018-01-22T00:24:21.948Z,98.77
2018-01-22T00:25:21.964Z,98.30
2018-01-22T00:26:22.029Z,98.30
2018-01-22T00:27:21.994Z,98.96
2018-01-22T00:28:22.009Z,98.68
2018-01-22T00:29:22.024Z,98.77
2018-01-22T00:30:22.040Z,98.77
2018-01-22T00:31:22.054Z,98.68
2018-01-22T00:32:22.074Z,98.39
2018-01-22T00:33:22.085Z,98.20
2018-01-22T00:34:22.100Z,98.11
2018-01-22T00:35:22.114Z,98.49
2018-01-22T00:36:22.129Z,98.01
2018-01-22T00:37:22.148Z,98.20
2018-01-22T00:38:22.160Z,98.39
2018-01-22T00:39:22.174Z,98.11
2018-01-22T00:40:22.190Z,98.49
2018-01-22T00:41:22.205Z,98.39
2018-01-22T00:42:22.220Z,98.39
2018-01-22T00:43:22.235Z,98.30
2018-01-22T00:44:22.249Z,98.58
2018-01-22T00:45:22.266Z,98.20
2018-01-22T00:46:22.280Z,98.30
2018-01-22T00:47:22.295Z,97.82
2018-01-22T00:48:22.310Z,98.20
2018-01-22T00:49:22.325Z,98.30
2018-01-22T00:50:22.341Z,98.20
2018-01-22T00:51:22.355Z,97.82
2018-01-22T00:52:22.370Z,97.63
2018-01-22T00:53:22.386Z,98.20
2018-01-22T00:54:22.401Z,97.73
2018-01-22T00:55:22.415Z,98.39
2018-01-22T00:56:22.431Z,97.92
2018-01-22T00:57:22.446Z,97.82
2018-01-22T00:58:22.460Z,97.44
2018-01-22T00:59:22.475Z,98.30
2018-01-22T01:00:22.490Z,98.39
2018-01-22T01:01:22.506Z,98.39
2018-01-22T01:02:22.521Z,98.39
2018-01-22T01:03:22.536Z,98.39
2018-01-22T01:04:22.551Z,98.39
2018-01-22T01:05:22.566Z,98.39
2018-01-22T01:06:22.581Z,97.92
2018-01-22T01:07:22.596Z,98.11
2018-01-22T01:08:22.610Z,97.92
2018-01-22T01:09:22.627Z,98.20
2018-01-22T01:10:22.644Z,98.58
2018-01-22T01:11:22.655Z,98.30
2018-01-22T01:12:22.671Z,98.39
2018-01-22T01:13:22.685Z,98.39
2018-01-22T01:14:22.701Z,98.30
2018-01-22T01:15:22.718Z,98.68
2018-01-22T01:16:22.730Z,98.49
2018-01-22T01:17:22.745Z,98.39
2018-01-22T01:18:22.761Z,98.77
2018-01-22T01:19:22.778Z,98.30
2018-01-22T01:20:22.790Z,98.49
2018-01-22T01:21:22.806Z,99.05
2018-01-22T01:22:22.823Z,99.15
2018-01-22T01:23:22.838Z,98.96
2018-01-22T01:24:22.850Z,99.15
2018-01-22T01:25:22.865Z,99.52
2018-01-22T01:26:22.880Z,99.43
2018-01-22T01:27:22.894Z,99.52
2018-01-22T01:28:22.910Z,99.62
2018-01-22T01:29:22.925Z,99.90
2018-01-22T01:30:22.989Z,99.62
2018-01-22T01:31:22.954Z,99.24
2018-01-22T01:32:22.968Z,99.52
2018-01-22T01:33:22.983Z,99.99
2018-01-22T01:34:22.999Z,99.99
2018-01-22T01:35:23.013Z,99.90
2018-01-22T01:36:23.028Z,99.90
2018-01-22T01:37:23.043Z,99.71
2018-01-22T01:38:23.059Z,99.33
2018-01-22T01:39:23.073Z,99.71
2018-01-22T01:40:23.088Z,99.99
2018-01-22T01:41:23.157Z,99.52
2018-01-22T01:42:23.117Z,99.71
2018-01-22T01:43:23.132Z,99.99
2018-01-22T01:44:23.148Z,99.24
2018-01-22T01:45:23.163Z,99.99
2018-01-22T01:46:23.181Z,99.90
2018-01-22T01:47:23.192Z,99.99
2018-01-22T01:48:23.208Z,99.99
2018-01-22T01:49:23.223Z,99.99
2018-01-22T01:50:23.238Z,99.99
2018-01-22T01:51:23.252Z,99.99
2018-01-22T01:52:23.268Z,99.99
2018-01-22T01:53:23.282Z,99.99
2018-01-22T01:54:23.297Z,99.99
2018-01-22T01:55:23.312Z,99.99
2018-01-22T01:56:23.327Z,99.99
2018-01-22T01:57:23.342Z,99.99
2018-01-22T01:58:23.357Z,99.99
2018-01-22T01:59:23.371Z,99.99
2018-01-22T02:00:23.388Z,99.99
2018-01-22T02:01:23.401Z,99.99
2018-01-22T02:02:23.417Z,99.99
2018-01-22T02:03:23.430Z,99.99
2018-01-22T02:04:23.445Z,99.99
2018-01-22T02:05:23.461Z,99.99
2018-01-22T02:06:23.476Z,99.99
2018-01-22T02:07:23.490Z,99.99
2018-01-22T02:08:23.505Z,99.99
2018-01-22T02:09:23.521Z,99.99
2018-01-22T02:10:23.536Z,99.99
2018-01-22T02:11:23.550Z,99.99
2018-01-22T02:12:23.565Z,99.99
2018-01-22T02:13:23.580Z,99.99
2018-01-22T02:14:23.595Z,99.99
2018-01-22T02:15:23.759Z,99.99
2018-01-22T02:16:23.625Z,99.99
2018-01-22T02:17:23.640Z,99.99
2018-01-22T02:18:23.655Z,99.99
2018-01-22T02:19:23.670Z,99.99
2018-01-22T02:20:23.684Z,99.99
2018-01-22T02:21:23.701Z,99.99
2018-01-22T02:22:23.869Z,99.99
2018-01-22T02:23:23.729Z,99.99
2018-01-22T02:24:23.744Z,99.99
2018-01-22T02:25:23.759Z,99.99
2018-01-22T02:26:23.774Z,99.99
2018-01-22T02:27:23.788Z,99.99
2018-01-22T02:28:23.804Z,99.99
2018-01-22T02:29:23.819Z,99.99
2018-01-22T02:30:23.835Z,99.99
2018-01-22T02:31:23.849Z,99.99
2018-01-22T02:32:23.864Z,99.99
2018-01-22T02:33:23.879Z,99.99
2018-01-22T02:34:23.894Z,99.99
2018-01-22T02:35:23.908Z,99.99
2018-01-22T02:36:23.924Z,99.99
2018-01-22T02:37:23.939Z,99.99
2018-01-22T02:38:23.954Z,99.99
2018-01-22T02:39:23.968Z,99.99
2018-01-22T02:40:23.983Z,99.99
2018-01-22T02:41:23.999Z,99.99
2018-01-22T02:42:24.014Z,99.99
2018-01-22T02:43:24.028Z,99.99
2018-01-22T02:44:24.043Z,99.99
2018-01-22T02:45:24.058Z,99.99
2018-01-22T02:46:24.074Z,99.99
2018-01-22T02:47:24.088Z,99.99
2018-01-22T02:48:24.253Z,99.99
2018-01-22T02:49:24.118Z,99.99
2018-01-22T02:50:24.134Z,99.99
2018-01-22T02:51:24.148Z,99.99
2018-01-22T02:52:24.162Z,99.99
2018-01-22T02:53:24.180Z,99.99
2018-01-22T02:54:24.193Z,99.99
2018-01-22T02:55:24.207Z,99.99
2018-01-22T02:56:24.223Z,99.99
2018-01-22T02:57:24.237Z,99.99
2018-01-22T02:58:24.252Z,99.99
2018-01-22T02:59:24.266Z,99.99
2018-01-22T03:00:24.281Z,99.99
2018-01-22T03:01:24.296Z,99.99
2018-01-22T03:02:24.312Z,99.99
2018-01-22T03:03:24.325Z,99.99
2018-01-22T03:04:24.340Z,99.99
2018-01-22T03:05:24.356Z,99.99
2018-01-22T03:06:24.371Z,99.99
2018-01-22T03:07:24.385Z,99.99
2018-01-22T03:08:24.399Z,99.99
2018-01-22T03:09:24.416Z,99.99
2018-01-22T03:10:24.430Z,99.99
2018-01-22T03:11:24.445Z,99.99
2018-01-22T03:12:24.460Z,99.99
2018-01-22T03:13:24.475Z,99.99
2018-01-22T03:14:24.490Z,99.99
2018-01-22T03:15:24.504Z,99.99
2018-01-22T03:16:24.519Z,99.99
2018-01-22T03:17:24.534Z,99.99
2018-01-22T03:18:24.548Z,99.99
2018-01-22T03:19:24.563Z,99.99
2018-01-22T03:20:24.579Z,99.99
2018-01-22T03:21:24.594Z,99.99
2018-01-22T03:22:24.609Z,99.99
2018-01-22T03:23:24.623Z,99.99
2018-01-22T03:24:24.639Z,99.99
2018-01-22T03:25:24.653Z,99.99
2018-01-22T03:26:24.668Z,99.99
2018-01-22T03:27:24.721Z,99.99
2018-01-22T03:28:24.698Z,99.99
2018-01-22T03:29:24.712Z,99.99
2018-01-22T03:30:24.729Z,99.99
2018-01-22T03:31:24.742Z,99.99
2018-01-22T03:32:24.757Z,99.99
2018-01-22T03:33:24.772Z,99.99
2018-01-22T03:34:24.787Z,99.99
2018-01-22T03:35:24.805Z,99.99
2018-01-22T03:36:24.821Z,99.99
2018-01-22T03:37:24.832Z,99.99
2018-01-22T03:38:24.847Z,99.99
2018-01-22T03:39:24.861Z,99.99
2018-01-22T03:40:24.876Z,99.99
2018-01-22T03:41:24.891Z,99.99
2018-01-22T03:42:24.906Z,99.99
2018-01-22T03:43:24.921Z,99.99
2018-01-22T03:44:24.936Z,99.99
2018-01-22T03:45:24.951Z,99.99
2018-01-22T03:46:24.965Z,99.99
2018-01-22T03:47:24.980Z,99.99
2018-01-22T03:48:24.995Z,99.99
2018-01-22T03:49:25.011Z,99.99
2018-01-22T03:50:25.026Z,99.99
2018-01-22T03:51:25.040Z,99.99
2018-01-22T03:52:25.055Z,99.99
2018-01-22T03:53:25.070Z,99.99
2018-01-22T03:54:25.085Z,99.99
2018-01-22T03:55:25.099Z,99.99
2018-01-22T03:56:25.114Z,99.99
2018-01-22T03:57:25.129Z,99.99
2018-01-22T03:58:25.144Z,99.99
2018-01-22T03:59:25.159Z,99.99
2018-01-22T04:00:25.174Z,99.99
2018-01-22T04:01:25.189Z,99.99
2018-01-22T04:02:25.203Z,99.99
2018-01-22T04:03:25.218Z,99.99
2018-01-22T04:04:25.233Z,99.99
2018-01-22T04:05:25.249Z,99.99
2018-01-22T04:06:25.263Z,99.99
2018-01-22T04:07:25.277Z,99.99
2018-01-22T04:08:25.292Z,99.99
2018-01-22T04:09:25.307Z,99.99
2018-01-22T04:10:25.322Z,99.99
2018-01-22T04:11:25.336Z,99.99
2018-01-22T04:12:25.352Z,99.99
2018-01-22T04:13:25.367Z,99.99
2018-01-22T04:14:25.531Z,99.99
2018-01-22T04:15:25.395Z,99.99
2018-01-22T04:16:25.510Z,99.99
2018-01-22T04:17:25.463Z,99.99
2018-01-22T04:18:25.440Z,99.99
2018-01-22T04:19:25.454Z,99.99
2018-01-22T04:20:25.468Z,99.99
2018-01-22T04:21:25.484Z,99.99
2018-01-22T04:22:25.507Z,99.99
2018-01-22T04:23:25.513Z,99.99
2018-01-22T04:24:25.528Z,99.99
2018-01-22T04:25:25.543Z,99.99
2018-01-22T04:26:25.558Z,99.99
2018-01-22T04:27:25.572Z,99.99
2018-01-22T04:28:25.587Z,99.99
2018-01-22T04:29:25.601Z,99.99
2018-01-22T04:30:25.617Z,99.99
2018-01-22T04:31:25.631Z,99.99
2018-01-22T04:32:25.646Z,99.99
2018-01-22T04:33:25.661Z,99.99
2018-01-22T04:34:25.676Z,99.99
2018-01-22T04:35:25.690Z,99.99
2018-01-22T04:36:25.705Z,99.99
2018-01-22T04:37:25.871Z,99.99
2018-01-22T04:38:25.736Z,99.99
2018-01-22T04:39:25.749Z,99.99
2018-01-22T04:40:25.765Z,99.99
2018-01-22T04:41:25.780Z,99.99
2018-01-22T04:42:25.795Z,99.99
2018-01-22T04:43:25.809Z,99.99
2018-01-22T04:44:25.825Z,99.99
2018-01-22T04:45:25.840Z,99.99
2018-01-22T04:46:25.854Z,99.99
2018-01-22T04:47:25.869Z,99.99
2018-01-22T04:48:25.885Z,99.99
2018-01-22T04:49:25.898Z,99.99
2018-01-22T04:50:25.916Z,99.99
2018-01-22T04:51:25.928Z,99.99
2018-01-22T04:52:25.944Z,99.99
2018-01-22T04:53:25.959Z,99.99
2018-01-22T04:54:25.973Z,99.99
2018-01-22T04:55:25.988Z,99.99
2018-01-22T04:56:26.002Z,99.99
2018-01-22T04:57:26.017Z,99.99
2018-01-22T04:58:26.033Z,99.99
2018-01-22T04:59:26.046Z,99.99
2018-01-22T05:00:26.062Z,99.99
2018-01-22T05:01:26.077Z,99.99
2018-01-22T05:02:26.092Z,99.99
2018-01-22T05:03:26.106Z,99.99
2018-01-22T05:04:26.121Z,99.99
2018-01-22T05:05:26.144Z,99.99
2018-01-22T05:06:26.152Z,99.99
2018-01-22T05:07:26.167Z,99.99
2018-01-22T05:08:26.184Z,99.99
2018-01-22T05:09:26.195Z,99.99
2018-01-22T05:10:26.211Z,99.99
2018-01-22T05:11:26.225Z,99.99
2018-01-22T05:12:26.240Z,99.99
2018-01-22T05:13:26.255Z,99.99
2018-01-22T05:14:26.270Z,99.99
2018-01-22T05:15:26.284Z,99.99
2018-01-22T05:16:26.299Z,99.99
2018-01-22T05:17:26.314Z,99.99
2018-01-22T05:18:26.330Z,99.99
2018-01-22T05:19:26.344Z,99.99
2018-01-22T05:20:26.359Z,99.99
2018-01-22T05:21:26.374Z,99.99
2018-01-22T05:22:26.388Z,99.99
2018-01-22T05:23:26.404Z,99.99
2018-01-22T05:24:26.424Z,99.99
2018-01-22T05:25:26.435Z,99.99
2018-01-22T05:26:26.498Z,99.99
2018-01-22T05:27:26.462Z,99.99
2018-01-22T05:28:26.477Z,99.99
2018-01-22T05:29:26.491Z,99.99
2018-01-22T05:30:26.508Z,99.99
2018-01-22T05:31:26.523Z,99.99
2018-01-22T05:32:26.536Z,99.99
2018-01-22T05:33:26.551Z,99.99
2018-01-22T05:34:26.566Z,99.99
2018-01-22T05:35:26.580Z,99.99
2018-01-22T05:36:26.595Z,99.99
2018-01-22T05:37:26.611Z,99.99
2018-01-22T05:38:26.626Z,99.99
2018-01-22T05:39:26.640Z,99.99
2018-01-22T05:40:26.705Z,99.99
2018-01-22T05:41:26.671Z,99.99
2018-01-22T05:42:26.685Z,99.99
2018-01-22T05:43:26.699Z,99.99
2018-01-22T05:44:26.714Z,99.99
2018-01-22T05:45:26.729Z,99.99
2018-01-22T05:46:26.750Z,99.99
2018-01-22T05:47:26.759Z,99.99
2018-01-22T05:48:26.774Z,99.99
2018-01-22T05:49:26.788Z,99.99
2018-01-22T05:50:26.804Z,99.99
2018-01-22T05:51:26.818Z,99.99
2018-01-22T05:52:26.833Z,99.99
2018-01-22T05:53:26.848Z,99.99
2018-01-22T05:54:26.863Z,99.99
2018-01-22T05:55:26.878Z,99.99
2018-01-22T05:56:26.893Z,99.99
2018-01-22T05:57:26.907Z,99.99
2018-01-22T05:58:26.922Z,99.99
2018-01-22T05:59:26.937Z,99.99
2018-01-22T06:00:26.952Z,99.99
2018-01-22T06:01:26.966Z,99.99
2018-01-22T06:02:26.982Z,99.99
2018-01-22T06:03:26.996Z,99.99
2018-01-22T06:04:27.011Z,99.99
2018-01-22T06:05:27.026Z,99.99
2018-01-22T06:06:27.042Z,99.99
2018-01-22T06:07:27.056Z,99.99
2018-01-22T06:08:27.071Z,99.99
2018-01-22T06:09:27.086Z,99.99
2018-01-22T06:10:27.102Z,99.99
2018-01-22T06:11:27.115Z,99.99
2018-01-22T06:12:27.130Z,99.99
2018-01-22T06:13:27.144Z,99.99
2018-01-22T06:14:27.161Z,99.99
2018-01-22T06:15:27.211Z,99.99
2018-01-22T06:16:27.190Z,99.99
2018-01-22T06:17:27.205Z,99.99
2018-01-22T06:18:27.221Z,99.99
2018-01-22T06:19:27.237Z,99.99
2018-01-22T06:20:27.249Z,99.99
2018-01-22T06:21:27.266Z,99.99
2018-01-22T06:22:27.281Z,99.99
2018-01-22T06:23:27.295Z,99.99
2018-01-22T06:24:27.310Z,99.99
2018-01-22T06:25:27.475Z,99.99
2018-01-22T06:26:27.340Z,99.99
2018-01-22T06:27:27.355Z,99.99
2018-01-22T06:28:27.372Z,99.99
2018-01-22T06:29:27.385Z,99.99
2018-01-22T06:30:27.401Z,99.99
2018-01-22T06:31:27.415Z,99.99
2018-01-22T06:32:27.430Z,99.99
2018-01-22T06:33:27.446Z,99.99
2018-01-22T06:34:27.461Z,99.99
2018-01-22T06:35:27.477Z,99.99
2018-01-22T06:36:27.490Z,99.99
2018-01-22T06:37:27.505Z,99.99
2018-01-22T06:38:27.521Z,99.99
2018-01-22T06:39:27.535Z,99.99
2018-01-22T06:40:27.551Z,99.99
2018-01-22T06:41:27.566Z,99.99
2018-01-22T06:42:27.582Z,99.99
2018-01-22T06:43:27.595Z,99.99
2018-01-22T06:44:27.611Z,99.99
2018-01-22T06:45:27.626Z,99.99
2018-01-22T06:46:27.642Z,99.99
2018-01-22T06:47:27.656Z,99.99
2018-01-22T06:48:27.671Z,99.99
2018-01-22T06:49:27.709Z,99.99
2018-01-22T06:50:27.702Z,99.99
2018-01-22T06:51:27.766Z,99.99
2018-01-22T06:52:27.731Z,99.99
2018-01-22T06:53:27.747Z,99.99
2018-01-22T06:54:27.763Z,99.99
2018-01-22T06:55:27.777Z,99.99
2018-01-22T06:56:27.792Z,99.99
2018-01-22T06:57:27.808Z,99.99
2018-01-22T06:58:27.974Z,99.99
2018-01-22T06:59:27.838Z,99.99
2018-01-22T07:00:27.853Z,99.99
2018-01-22T07:01:27.868Z,99.99
2018-01-22T07:02:27.884Z,99.99
2018-01-22T07:03:27.898Z,99.99
2018-01-22T07:04:27.914Z,99.99
2018-01-22T07:05:27.930Z,99.99
2018-01-22T07:06:27.945Z,99.99
2018-01-22T07:07:27.959Z,99.99
2018-01-22T07:08:27.975Z,99.99
2018-01-22T07:09:27.991Z,99.99
2018-01-22T07:10:28.156Z,99.99
2018-01-22T07:11:28.024Z,99.99
2018-01-22T07:12:28.036Z,99.99
2018-01-22T07:13:28.057Z,99.99
2018-01-22T07:14:28.067Z,99.99
2018-01-22T07:15:28.081Z,99.99
2018-01-22T07:16:28.097Z,99.99
2018-01-22T07:17:28.113Z,99.99
2018-01-22T07:18:28.128Z,99.99
2018-01-22T07:19:28.143Z,99.99
2018-01-22T07:20:28.158Z,99.99
2018-01-22T07:21:28.174Z,99.99
2018-01-22T07:22:28.189Z,99.99
2018-01-22T07:23:28.204Z,99.99
2018-01-22T07:24:28.219Z,99.99
2018-01-22T07:25:28.236Z,99.99
2018-01-22T07:26:28.455Z,99.99
2018-01-22T07:27:28.265Z,99.99
2018-01-22T07:28:28.280Z,99.99
2018-01-22T07:29:28.297Z,99.99
2018-01-22T07:30:28.312Z,99.99
2018-01-22T07:31:28.327Z,99.99
2018-01-22T07:32:28.343Z,99.99
2018-01-22T07:33:28.358Z,99.99
2018-01-22T07:34:28.374Z,99.99
2018-01-22T07:35:28.389Z,99.99
2018-01-22T07:36:28.403Z,99.99
2018-01-22T07:37:28.420Z,99.99
2018-01-22T07:38:28.435Z,99.99
2018-01-22T07:39:28.450Z,99.99
2018-01-22T07:40:28.466Z,99.99
2018-01-22T07:41:28.481Z,99.99
2018-01-22T07:42:28.497Z,99.99
2018-01-22T07:43:28.515Z,99.99
2018-01-22T07:44:28.528Z,99.99
2018-01-22T07:45:28.544Z,99.99
2018-01-22T07:46:28.559Z,99.99
2018-01-22T07:47:28.574Z,99.99
2018-01-22T07:48:28.590Z,99.99
2018-01-22T07:49:28.605Z,99.99
2018-01-22T07:50:28.621Z,99.99
2018-01-22T07:51:28.636Z,99.99
2018-01-22T07:52:28.651Z,99.99
2018-01-22T07:53:28.669Z,99.99
2018-01-22T07:54:28.685Z,99.99
2018-01-22T07:55:28.697Z,99.99
2018-01-22T07:56:28.717Z,99.99
2018-01-22T07:57:28.729Z,99.99
2018-01-22T07:58:28.746Z,99.99
2018-01-22T07:59:28.760Z,99.99
2018-01-22T08:00:28.778Z,99.99
2018-01-22T08:01:28.792Z,99.99
2018-01-22T08:02:28.807Z,99.99
2018-01-22T08:03:28.822Z,99.99
2018-01-22T08:04:28.838Z,99.99
2018-01-22T08:05:28.853Z,99.99
2018-01-22T08:06:28.870Z,99.99
2018-01-22T08:07:28.884Z,99.99
2018-01-22T08:08:28.901Z,99.99
2018-01-22T08:09:28.916Z,99.99
2018-01-22T08:10:28.932Z,99.99
2018-01-22T08:11:28.949Z,99.99
2018-01-22T08:12:28.962Z,99.99
2018-01-22T08:13:28.978Z,99.99
2018-01-22T08:14:28.996Z,99.99
2018-01-22T08:15:29.009Z,99.99
2018-01-22T08:16:29.025Z,99.99
2018-01-22T08:17:29.041Z,99.99
2018-01-22T08:18:29.057Z,99.99
2018-01-22T08:19:29.072Z,99.99
2018-01-22T08:20:29.088Z,99.99
2018-01-22T08:21:29.104Z,99.99
2018-01-22T08:22:29.120Z,99.99
2018-01-22T08:23:29.135Z,99.99
2018-01-22T08:24:29.151Z,99.99
2018-01-22T08:25:29.169Z,99.99
2018-01-22T08:26:29.195Z,99.99
2018-01-22T08:27:29.197Z,99.99
2018-01-22T08:28:29.214Z,99.99
2018-01-22T08:29:29.230Z,99.99
2018-01-22T08:30:29.247Z,99.99
2018-01-22T08:31:29.261Z,99.99
2018-01-22T08:32:29.277Z,99.99
2018-01-22T08:33:29.294Z,99.99
2018-01-22T08:34:29.335Z,99.99
2018-01-22T08:35:29.324Z,99.99
2018-01-22T08:36:29.346Z,99.99
2018-01-22T08:37:29.356Z,99.99
2018-01-22T08:38:29.372Z,99.99
2018-01-22T08:39:29.388Z,99.99
2018-01-22T08:40:29.403Z,99.99
2018-01-22T08:41:29.420Z,99.99
2018-01-22T08:42:29.438Z,99.99
2018-01-22T08:43:29.451Z,99.99
2018-01-22T08:44:29.467Z,99.99
2018-01-22T08:45:29.483Z,99.99
2018-01-22T08:46:29.499Z,99.99
2018-01-22T08:47:29.514Z,99.99
2018-01-22T08:48:29.530Z,99.99
2018-01-22T08:49:29.546Z,99.99
2018-01-22T08:50:29.568Z,99.99
2018-01-22T08:51:29.578Z,99.99
2018-01-22T08:52:29.594Z,99.99
2018-01-22T08:53:29.610Z,99.99
2018-01-22T08:54:29.626Z,99.99
2018-01-22T08:55:29.641Z,99.99
2018-01-22T08:56:29.657Z,99.99
2018-01-22T08:57:29.673Z,99.99
2018-01-22T08:58:29.690Z,99.99
2018-01-22T08:59:29.705Z,99.99
2018-01-22T09:00:29.720Z,99.99
2018-01-22T09:01:29.737Z,99.99
2018-01-22T09:02:29.754Z,99.99
2018-01-22T09:03:29.768Z,99.99
2018-01-22T09:04:29.784Z,99.99
2018-01-22T09:05:29.800Z,99.99
2018-01-22T09:06:29.817Z,99.99
2018-01-22T09:07:29.833Z,99.99
2018-01-22T09:08:29.849Z,99.99
2018-01-22T09:09:29.865Z,99.99
2018-01-22T09:10:29.881Z,99.99
2018-01-22T09:11:29.898Z,99.99
2018-01-22T09:12:29.916Z,99.99
2018-01-22T09:13:29.931Z,99.99
2018-01-22T09:14:29.945Z,99.99
2018-01-22T09:15:29.961Z,99.99
2018-01-22T09:16:29.977Z,99.99
2018-01-22T09:17:29.994Z,99.99
2018-01-22T09:18:30.011Z,99.99
2018-01-22T09:19:30.026Z,99.99
2018-01-22T09:20:30.042Z,99.99
2018-01-22T09:21:30.059Z,99.99
2018-01-22T09:22:30.075Z,99.99
2018-01-22T09:23:30.090Z,99.99
2018-01-22T09:24:30.108Z,99.99
2018-01-22T09:25:30.124Z,99.99
2018-01-22T09:26:30.139Z,99.99
2018-01-22T09:27:30.155Z,99.99
2018-01-22T09:28:30.172Z,99.99
2018-01-22T09:29:30.188Z,99.99
2018-01-22T09:30:30.205Z,99.99
2018-01-22T09:31:30.220Z,99.99
2018-01-22T09:32:30.237Z,99.99
2018-01-22T09:33:30.258Z,99.99
2018-01-22T09:34:30.270Z,99.99
2018-01-22T09:35:30.287Z,99.99
2018-01-22T09:36:30.303Z,99.99
2018-01-22T09:37:30.319Z,99.99
2018-01-22T09:38:30.336Z,99.99
2018-01-22T09:39:30.351Z,99.99
2018-01-22T09:40:30.368Z,99.99
2018-01-22T09:41:30.535Z,99.99
2018-01-22T09:42:30.402Z,99.99
2018-01-22T09:43:30.417Z,99.99
2018-01-22T09:44:30.434Z,99.99
2018-01-22T09:45:30.450Z,99.99
2018-01-22T09:46:30.473Z,99.99
2018-01-22T09:47:30.483Z,99.99
2018-01-22T09:48:30.500Z,99.99
2018-01-22T09:49:30.552Z,99.99
2018-01-22T09:50:30.533Z,99.99
2018-01-22T09:51:30.699Z,99.99
2018-01-22T09:52:30.568Z,99.99
2018-01-22T09:53:30.682Z,99.99
2018-01-22T09:54:30.600Z,99.99
2018-01-22T09:55:30.619Z,99.99
2018-01-22T09:56:30.633Z,99.99
2018-01-22T09:57:30.655Z,99.99
2018-01-22T09:58:30.667Z,99.99
2018-01-22T09:59:30.731Z,99.99
2018-01-22T10:00:30.706Z,99.99
2018-01-22T10:01:30.717Z,99.99
2018-01-22T10:02:30.733Z,99.99
2018-01-22T10:03:30.749Z,99.99
2018-01-22T10:04:30.766Z,99.99
2018-01-22T10:05:30.783Z,99.99
2018-01-22T10:06:30.800Z,99.99
2018-01-22T10:07:30.817Z,99.99
2018-01-22T10:08:30.845Z,99.99
2018-01-22T10:09:30.854Z,99.99
2018-01-22T10:10:30.867Z,99.99
2018-01-22T10:11:30.883Z,99.99
2018-01-22T10:12:30.901Z,99.99
2018-01-22T10:13:31.118Z,99.99
2018-01-22T10:14:30.935Z,99.99
2018-01-22T10:15:30.950Z,99.99
2018-01-22T10:16:30.968Z,99.99
2018-01-22T10:17:30.985Z,99.99
2018-01-22T10:18:31.002Z,99.99
2018-01-22T10:19:31.020Z,99.99
2018-01-22T10:20:31.035Z,99.99
2018-01-22T10:21:31.053Z,99.99
2018-01-22T10:22:31.069Z,99.99
2018-01-22T10:23:31.085Z,99.99
2018-01-22T10:24:31.253Z,99.99
2018-01-22T10:25:31.125Z,99.99
2018-01-22T10:26:31.140Z,99.99
2018-01-22T10:27:31.153Z,99.99
2018-01-22T10:28:31.177Z,99.99
2018-01-22T10:29:31.187Z,99.99
2018-01-22T10:30:31.206Z,99.99
2018-01-22T10:31:31.221Z,99.99
2018-01-22T10:32:31.238Z,99.99
2018-01-22T10:33:31.257Z,99.99
2018-01-22T10:34:31.276Z,99.99
2018-01-22T10:35:31.289Z,99.99
2018-01-22T10:36:31.307Z,99.99
2018-01-22T10:37:31.324Z,99.99
2018-01-22T10:38:31.341Z,99.99
2018-01-22T10:39:31.357Z,99.99
2018-01-22T10:40:31.375Z,99.99
2018-01-22T10:41:31.392Z,99.99
2018-01-22T10:42:31.408Z,99.99
2018-01-22T10:43:31.432Z,99.99
2018-01-22T10:44:31.442Z,99.99
2018-01-22T10:45:31.459Z,99.99
2018-01-22T10:46:31.477Z,99.99
2018-01-22T10:47:31.493Z,99.99
2018-01-22T10:48:31.510Z,99.99
2018-01-22T10:49:31.527Z,99.99
2018-01-22T10:50:31.544Z,99.99
2018-01-22T10:51:31.560Z,99.99
2018-01-22T10:52:31.577Z,99.99
2018-01-22T10:53:31.594Z,99.99
2018-01-22T10:54:31.641Z,99.99
2018-01-22T10:55:31.627Z,99.99
2018-01-22T10:56:31.644Z,99.99
2018-01-22T10:57:31.662Z,99.99
2018-01-22T10:58:31.678Z,99.99
2018-01-22T10:59:31.695Z,99.99
2018-01-22T11:00:31.862Z,99.99
2018-01-22T11:01:31.730Z,99.99
2018-01-22T11:02:31.746Z,99.99
2018-01-22T11:03:31.762Z,99.99
2018-01-22T11:04:31.780Z,99.99
2018-01-22T11:05:31.796Z,99.99
2018-01-22T11:06:31.814Z,99.99
2018-01-22T11:07:31.832Z,99.99
2018-01-22T11:08:31.850Z,99.99
2018-01-22T11:09:31.867Z,99.99
2018-01-22T11:10:31.883Z,99.99
2018-01-22T11:11:31.904Z,99.99
2018-01-22T11:12:32.017Z,99.99
2018-01-22T11:13:31.933Z,99.99
2018-01-22T11:14:31.949Z,99.99
2018-01-22T11:15:32.321Z,99.99
2018-01-22T11:16:31.980Z,99.99
2018-01-22T11:17:31.999Z,99.99
2018-01-22T11:18:32.041Z,99.99
2018-01-22T11:19:32.032Z,99.99
2018-01-22T11:20:32.052Z,99.99
2018-01-22T11:21:32.066Z,99.99
2018-01-22T11:22:32.084Z,99.99
2018-01-22T11:23:32.101Z,99.99
2018-01-22T11:24:32.117Z,99.99
2018-01-22T11:25:32.135Z,99.99
2018-01-22T11:26:32.167Z,99.99
2018-01-22T11:27:32.177Z,99.99
2018-01-22T11:28:32.186Z,99.99
2018-01-22T11:29:32.280Z,99.99
2018-01-22T11:30:32.227Z,99.99
2018-01-22T11:31:32.236Z,99.99
2018-01-22T11:32:32.256Z,99.99
2018-01-22T11:33:32.267Z,99.99
2018-01-22T11:34:32.285Z,99.99
2018-01-22T11:35:32.300Z,99.99
2018-01-22T11:36:32.318Z,99.99
2018-01-22T11:37:32.336Z,99.99
2018-01-22T11:38:32.352Z,99.99
2018-01-22T11:39:32.368Z,99.99
2018-01-22T11:40:32.386Z,99.99
2018-01-22T11:41:32.402Z,99.99
2018-01-22T11:42:32.419Z,99.99
2018-01-22T11:43:32.435Z,99.99
2018-01-22T11:44:32.454Z,99.99
2018-01-22T11:45:32.469Z,99.99
2018-01-22T11:46:32.487Z,99.99
2018-01-22T11:47:32.502Z,99.99
2018-01-22T11:48:32.520Z,99.99
2018-01-22T11:49:32.537Z,99.99
2018-01-22T11:50:32.554Z,99.99
2018-01-22T11:51:32.570Z,99.99
2018-01-22T11:52:32.587Z,99.99
2018-01-22T11:53:32.604Z,99.99
2018-01-22T11:54:32.621Z,99.99
2018-01-22T11:55:32.637Z,99.99
2018-01-22T11:56:32.654Z,99.99
2018-01-22T11:57:32.671Z,99.99
2018-01-22T11:58:32.688Z,99.99
2018-01-22T11:59:32.705Z,99.99
2018-01-22T12:00:32.872Z,99.99
2018-01-22T12:01:32.791Z,99.99
2018-01-22T12:02:32.756Z,99.99
2018-01-22T12:03:32.773Z,99.99
2018-01-22T12:04:32.790Z,99.99
2018-01-22T12:05:32.807Z,99.99
2018-01-22T12:06:32.828Z,99.99
2018-01-22T12:07:32.842Z,99.99
2018-01-22T12:08:32.857Z,99.99
2018-01-22T12:09:32.876Z,99.99
2018-01-22T12:10:32.892Z,99.99
2018-01-22T12:11:32.908Z,99.99
2018-01-22T12:12:32.926Z,99.99
2018-01-22T12:13:32.944Z,99.99
2018-01-22T12:14:32.960Z,99.99
2018-01-22T12:15:33.027Z,99.99
2018-01-22T12:16:32.994Z,99.99
2018-01-22T12:17:33.012Z,99.99
2018-01-22T12:18:33.031Z,99.99
2018-01-22T12:19:33.045Z,99.99
2018-01-22T12:20:33.066Z,99.99
2018-01-22T12:21:33.081Z,99.99
2018-01-22T12:22:33.097Z,99.99
2018-01-22T12:23:33.114Z,99.99
2018-01-22T12:24:33.131Z,99.99
2018-01-22T12:25:33.199Z,99.99
2018-01-22T12:26:33.166Z,99.99
2018-01-22T12:27:33.182Z,99.99
2018-01-22T12:28:33.199Z,99.99
2018-01-22T12:29:33.217Z,99.99
2018-01-22T12:30:33.235Z,99.99
2018-01-22T12:31:33.251Z,99.99
2018-01-22T12:32:33.269Z,99.99
2018-01-22T12:33:33.286Z,99.99
2018-01-22T12:34:33.305Z,99.99
2018-01-22T12:35:33.319Z,99.99
2018-01-22T12:36:33.340Z,99.99
2018-01-22T12:37:33.504Z,99.99
2018-01-22T12:38:33.371Z,99.99
2018-01-22T12:39:33.388Z,99.99
2018-01-22T12:40:33.406Z,99.99
2018-01-22T12:41:33.423Z,99.99
2018-01-22T12:42:33.440Z,99.99
2018-01-22T12:43:33.457Z,99.99
2018-01-22T12:44:33.474Z,99.99
2018-01-22T12:45:33.492Z,99.99
2018-01-22T12:46:33.509Z,99.99
2018-01-22T12:47:33.526Z,99.99
2018-01-22T12:48:33.547Z,99.99
2018-01-22T12:49:33.565Z,99.99
2018-01-22T12:50:33.578Z,99.99
2018-01-22T12:51:33.595Z,99.99
2018-01-22T12:52:33.612Z,99.99